Terminal Aerodrome Forecast
Issued by NWS

Home | Current Version | Previous Version | Text Only | Print | Product List | Glossary On
Versions: 1 2 3 4 5 6 7 8 9 10 11 12 13 14 15 16
000
FTUS45 KPIH 261406 AAA
TAFSUN
TAF AMD
KSUN 261406Z 2614/2718 31011KT P6SM VCTS BKN100CB
      TEMPO 2614/2616 6SM -TSRA SCT050 BKN100CB
     FM261800 14009KT P6SM VCTS SCT050 OVC100CB
     FM262300 20008KT P6SM -SHRA VCTS SCT040 OVC090CB
     FM270300 31009KT P6SM VCSH BKN100=

USA.gov is the U.S. government's official web portal to all federal, state and local government web resources and services.